sensor_id;sensor_type;location;lat;lon;timestamp;P1;durP1;ratioP1;P2;durP2;ratioP2
63217;SDS011;49314;48.278;16.378;2023-12-20T00:01:07;39.45;;;35.90;;
63217;SDS011;49314;48.278;16.378;2023-12-20T00:03:32;52.17;;;47.97;;
63217;SDS011;49314;48.278;16.378;2023-12-20T00:05:57;51.70;;;47.65;;
63217;SDS011;49314;48.278;16.378;2023-12-20T00:08:23;49.22;;;45.70;;
63217;SDS011;49314;48.278;16.378;2023-12-20T00:10:48;51.10;;;46.90;;
63217;SDS011;49314;48.278;16.378;2023-12-20T00:13:13;49.33;;;45.53;;
63217;SDS011;49314;48.278;16.378;2023-12-20T00:15:39;52.42;;;48.42;;
63217;SDS011;49314;48.278;16.378;2023-12-20T00:18:04;50.05;;;46.50;;
63217;SDS011;49314;48.278;16.378;2023-12-20T00:20:30;48.63;;;45.03;;
63217;SDS011;49314;48.278;16.378;2023-12-20T00:22:56;41.72;;;38.15;;
63217;SDS011;49314;48.278;16.378;2023-12-20T00:25:21;39.95;;;36.67;;
63217;SDS011;49314;48.278;16.378;2023-12-20T00:27:46;50.47;;;46.90;;
63217;SDS011;49314;48.278;16.378;2023-12-20T00:30:12;44.70;;;41.17;;
63217;SDS011;49314;48.278;16.378;2023-12-20T00:32:37;40.85;;;37.47;;
63217;SDS011;49314;48.278;16.378;2023-12-20T00:35:03;49.70;;;46.00;;
63217;SDS011;49314;48.278;16.378;2023-12-20T00:37:28;48.20;;;44.50;;
63217;SDS011;49314;48.278;16.378;2023-12-20T00:39:53;52.38;;;48.47;;
63217;SDS011;49314;48.278;16.378;2023-12-20T00:42:19;50.92;;;46.92;;
63217;SDS011;49314;48.278;16.378;2023-12-20T00:44:44;56.22;;;51.42;;
63217;SDS011;49314;48.278;16.378;2023-12-20T00:47:09;52.55;;;47.95;;
63217;SDS011;49314;48.278;16.378;2023-12-20T00:49:35;49.55;;;45.33;;
63217;SDS011;49314;48.278;16.378;2023-12-20T00:52:00;49.00;;;44.83;;
63217;SDS011;49314;48.278;16.378;2023-12-20T00:54:25;49.58;;;44.50;;
63217;SDS011;49314;48.278;16.378;2023-12-20T00:56:51;48.40;;;44.03;;
63217;SDS011;49314;48.278;16.378;2023-12-20T00:59:16;48.92;;;44.17;;
63217;SDS011;49314;48.278;16.378;2023-12-20T01:01:41;50.60;;;46.05;;
63217;SDS011;49314;48.278;16.378;2023-12-20T01:04:07;45.67;;;40.80;;
63217;SDS011;49314;48.278;16.378;2023-12-20T01:06:32;51.83;;;45.78;;
63217;SDS011;49314;48.278;16.378;2023-12-20T01:08:57;41.35;;;34.15;;
63217;SDS011;49314;48.278;16.378;2023-12-20T01:11:23;53.88;;;49.10;;
63217;SDS011;49314;48.278;16.378;2023-12-20T01:13:48;42.72;;;31.83;;
63217;SDS011;49314;48.278;16.378;2023-12-20T01:16:13;50.75;;;44.95;;
63217;SDS011;49314;48.278;16.378;2023-12-20T01:18:38;91.88;;;47.35;;
63217;SDS011;49314;48.278;16.378;2023-12-20T01:21:04;45.15;;;40.63;;
63217;SDS011;49314;48.278;16.378;2023-12-20T01:23:30;53.05;;;38.65;;
63217;SDS011;49314;48.278;16.378;2023-12-20T01:25:55;48.45;;;44.00;;
63217;SDS011;49314;48.278;16.378;2023-12-20T01:28:20;55.35;;;50.58;;
63217;SDS011;49314;48.278;16.378;2023-12-20T01:30:46;43.15;;;38.78;;
63217;SDS011;49314;48.278;16.378;2023-12-20T01:33:11;52.13;;;47.47;;
63217;SDS011;49314;48.278;16.378;2023-12-20T01:35:36;53.03;;;48.58;;
63217;SDS011;49314;48.278;16.378;2023-12-20T01:38:02;53.55;;;49.05;;
63217;SDS011;49314;48.278;16.378;2023-12-20T01:40:27;40.47;;;36.67;;
63217;SDS011;49314;48.278;16.378;2023-12-20T01:43:04;42.53;;;38.60;;
63217;SDS011;49314;48.278;16.378;2023-12-20T01:45:30;42.78;;;38.60;;
63217;SDS011;49314;48.278;16.378;2023-12-20T01:47:57;40.08;;;36.47;;
63217;SDS011;49314;48.278;16.378;2023-12-20T01:50:23;48.90;;;45.05;;
63217;SDS011;49314;48.278;16.378;2023-12-20T01:52:49;42.55;;;39.10;;
63217;SDS011;49314;48.278;16.378;2023-12-20T01:55:17;43.83;;;39.90;;
63217;SDS011;49314;48.278;16.378;2023-12-20T01:57:42;47.85;;;43.97;;
63217;SDS011;49314;48.278;16.378;2023-12-20T02:00:08;46.10;;;42.25;;
63217;SDS011;49314;48.278;16.378;2023-12-20T02:02:34;50.83;;;46.72;;
63217;SDS011;49314;48.278;16.378;2023-12-20T02:05:01;41.05;;;37.10;;
63217;SDS011;49314;48.278;16.378;2023-12-20T02:07:27;43.83;;;40.00;;
63217;SDS011;49314;48.278;16.378;2023-12-20T02:09:52;50.20;;;46.28;;
63217;SDS011;49314;48.278;16.378;2023-12-20T02:12:18;45.50;;;41.70;;
63217;SDS011;49314;48.278;16.378;2023-12-20T02:14:43;51.60;;;47.30;;
63217;SDS011;49314;48.278;16.378;2023-12-20T02:17:09;34.65;;;31.30;;
63217;SDS011;49314;48.278;16.378;2023-12-20T02:19:34;49.47;;;45.78;;
63217;SDS011;49314;48.278;16.378;2023-12-20T02:22:06;45.90;;;42.17;;
63217;SDS011;49314;48.278;16.378;2023-12-20T02:24:32;35.30;;;31.55;;
63217;SDS011;49314;48.278;16.378;2023-12-20T02:26:57;48.30;;;44.33;;
63217;SDS011;49314;48.278;16.378;2023-12-20T02:29:22;46.75;;;42.20;;
63217;SDS011;49314;48.278;16.378;2023-12-20T02:31:48;52.78;;;48.63;;
63217;SDS011;49314;48.278;16.378;2023-12-20T02:34:13;47.72;;;43.28;;
63217;SDS011;49314;48.278;16.378;2023-12-20T02:36:38;51.40;;;47.28;;
63217;SDS011;49314;48.278;16.378;2023-12-20T02:39:03;52.00;;;47.90;;
63217;SDS011;49314;48.278;16.378;2023-12-20T02:41:29;52.40;;;47.65;;
63217;SDS011;49314;48.278;16.378;2023-12-20T02:43:54;47.25;;;42.78;;
63217;SDS011;49314;48.278;16.378;2023-12-20T02:46:19;51.67;;;47.33;;
63217;SDS011;49314;48.278;16.378;2023-12-20T02:48:45;40.33;;;36.25;;
63217;SDS011;49314;48.278;16.378;2023-12-20T02:51:12;49.75;;;45.25;;
63217;SDS011;49314;48.278;16.378;2023-12-20T02:53:37;48.28;;;43.67;;
63217;SDS011;49314;48.278;16.378;2023-12-20T02:56:02;38.17;;;34.35;;
63217;SDS011;49314;48.278;16.378;2023-12-20T02:58:28;43.95;;;39.60;;
63217;SDS011;49314;48.278;16.378;2023-12-20T03:00:53;50.90;;;46.05;;
63217;SDS011;49314;48.278;16.378;2023-12-20T03:03:18;42.80;;;34.33;;
63217;SDS011;49314;48.278;16.378;2023-12-20T03:05:44;41.22;;;37.03;;
63217;SDS011;49314;48.278;16.378;2023-12-20T03:08:10;55.05;;;49.85;;
63217;SDS011;49314;48.278;16.378;2023-12-20T03:10:36;32.13;;;27.67;;
63217;SDS011;49314;48.278;16.378;2023-12-20T03:13:01;41.08;;;36.72;;
63217;SDS011;49314;48.278;16.378;2023-12-20T03:15:26;52.42;;;47.55;;
63217;SDS011;49314;48.278;16.378;2023-12-20T03:17:51;51.85;;;47.33;;
63217;SDS011;49314;48.278;16.378;2023-12-20T03:20:17;45.22;;;38.50;;
63217;SDS011;49314;48.278;16.378;2023-12-20T03:22:42;46.72;;;42.17;;
63217;SDS011;49314;48.278;16.378;2023-12-20T03:25:07;39.97;;;33.20;;
63217;SDS011;49314;48.278;16.378;2023-12-20T03:27:32;50.83;;;45.95;;
63217;SDS011;49314;48.278;16.378;2023-12-20T03:29:58;46.17;;;42.13;;
63217;SDS011;49314;48.278;16.378;2023-12-20T03:32:23;43.05;;;38.35;;
63217;SDS011;49314;48.278;16.378;2023-12-20T03:34:48;44.63;;;40.55;;
63217;SDS011;49314;48.278;16.378;2023-12-20T03:37:13;47.65;;;43.35;;
63217;SDS011;49314;48.278;16.378;2023-12-20T03:39:39;47.72;;;43.90;;
63217;SDS011;49314;48.278;16.378;2023-12-20T03:42:04;49.78;;;46.05;;
63217;SDS011;49314;48.278;16.378;2023-12-20T03:44:29;41.15;;;37.58;;
63217;SDS011;49314;48.278;16.378;2023-12-20T03:46:54;49.92;;;45.88;;
63217;SDS011;49314;48.278;16.378;2023-12-20T03:49:20;46.00;;;42.17;;
63217;SDS011;49314;48.278;16.378;2023-12-20T03:51:45;48.38;;;44.92;;
63217;SDS011;49314;48.278;16.378;2023-12-20T03:54:10;50.38;;;46.63;;
63217;SDS011;49314;48.278;16.378;2023-12-20T03:56:36;47.97;;;44.30;;
63217;SDS011;49314;48.278;16.378;2023-12-20T03:59:01;48.05;;;44.25;;
63217;SDS011;49314;48.278;16.378;2023-12-20T04:01:26;48.05;;;44.58;;
63217;SDS011;49314;48.278;16.378;2023-12-20T04:03:51;34.22;;;31.10;;
63217;SDS011;49314;48.278;16.378;2023-12-20T04:06:19;33.85;;;30.65;;
63217;SDS011;49314;48.278;16.378;2023-12-20T04:08:45;48.33;;;44.55;;
63217;SDS011;49314;48.278;16.378;2023-12-20T04:11:10;44.95;;;41.05;;
63217;SDS011;49314;48.278;16.378;2023-12-20T04:13:35;47.25;;;43.65;;
63217;SDS011;49314;48.278;16.378;2023-12-20T04:16:01;45.25;;;41.55;;
63217;SDS011;49314;48.278;16.378;2023-12-20T04:18:26;49.83;;;46.13;;
63217;SDS011;49314;48.278;16.378;2023-12-20T04:20:53;46.88;;;43.17;;
63217;SDS011;49314;48.278;16.378;2023-12-20T04:23:18;42.67;;;39.30;;
63217;SDS011;49314;48.278;16.378;2023-12-20T04:25:44;42.35;;;39.00;;
63217;SDS011;49314;48.278;16.378;2023-12-20T04:28:09;41.10;;;37.53;;
63217;SDS011;49314;48.278;16.378;2023-12-20T04:30:35;46.40;;;43.10;;
63217;SDS011;49314;48.278;16.378;2023-12-20T04:33:00;48.25;;;44.83;;
63217;SDS011;49314;48.278;16.378;2023-12-20T04:35:25;42.97;;;39.60;;
63217;SDS011;49314;48.278;16.378;2023-12-20T04:37:51;46.53;;;43.17;;
63217;SDS011;49314;48.278;16.378;2023-12-20T04:40:16;46.50;;;43.25;;
63217;SDS011;49314;48.278;16.378;2023-12-20T04:42:41;42.88;;;39.28;;
63217;SDS011;49314;48.278;16.378;2023-12-20T04:45:07;45.83;;;42.22;;
63217;SDS011;49314;48.278;16.378;2023-12-20T04:47:32;48.88;;;45.22;;
63217;SDS011;49314;48.278;16.378;2023-12-20T04:49:57;48.80;;;45.30;;
63217;SDS011;49314;48.278;16.378;2023-12-20T04:52:23;48.40;;;44.63;;
63217;SDS011;49314;48.278;16.378;2023-12-20T04:54:48;47.17;;;43.47;;
63217;SDS011;49314;48.278;16.378;2023-12-20T04:57:13;46.65;;;43.17;;
63217;SDS011;49314;48.278;16.378;2023-12-20T04:59:38;37.50;;;34.10;;
63217;SDS011;49314;48.278;16.378;2023-12-20T05:02:04;48.22;;;44.55;;
63217;SDS011;49314;48.278;16.378;2023-12-20T05:04:29;45.70;;;41.33;;
63217;SDS011;49314;48.278;16.378;2023-12-20T05:06:54;52.40;;;48.35;;
63217;SDS011;49314;48.278;16.378;2023-12-20T05:09:19;51.50;;;47.70;;
63217;SDS011;49314;48.278;16.378;2023-12-20T05:11:45;48.00;;;44.67;;
63217;SDS011;49314;48.278;16.378;2023-12-20T05:14:10;48.90;;;45.15;;
63217;SDS011;49314;48.278;16.378;2023-12-20T05:16:35;47.05;;;43.70;;
63217;SDS011;49314;48.278;16.378;2023-12-20T05:19:00;47.28;;;43.70;;
63217;SDS011;49314;48.278;16.378;2023-12-20T05:21:31;48.08;;;44.60;;
63217;SDS011;49314;48.278;16.378;2023-12-20T05:23:57;49.30;;;45.42;;
63217;SDS011;49314;48.278;16.378;2023-12-20T05:26:22;48.17;;;44.47;;
63217;SDS011;49314;48.278;16.378;2023-12-20T05:28:47;41.95;;;38.45;;
63217;SDS011;49314;48.278;16.378;2023-12-20T05:31:12;36.75;;;33.38;;
63217;SDS011;49314;48.278;16.378;2023-12-20T05:33:37;33.65;;;30.45;;
63217;SDS011;49314;48.278;16.378;2023-12-20T05:36:03;43.42;;;40.22;;
63217;SDS011;49314;48.278;16.378;2023-12-20T05:38:29;48.53;;;44.95;;
63217;SDS011;49314;48.278;16.378;2023-12-20T05:40:54;49.95;;;45.83;;
63217;SDS011;49314;48.278;16.378;2023-12-20T05:43:19;35.08;;;31.98;;
63217;SDS011;49314;48.278;16.378;2023-12-20T05:45:45;50.10;;;46.15;;
63217;SDS011;49314;48.278;16.378;2023-12-20T05:48:10;49.53;;;45.47;;
63217;SDS011;49314;48.278;16.378;2023-12-20T05:50:35;50.80;;;46.28;;
63217;SDS011;49314;48.278;16.378;2023-12-20T05:53:01;31.80;;;28.88;;
63217;SDS011;49314;48.278;16.378;2023-12-20T05:55:27;48.67;;;45.08;;
63217;SDS011;49314;48.278;16.378;2023-12-20T05:57:52;34.80;;;31.30;;
63217;SDS011;49314;48.278;16.378;2023-12-20T06:00:17;42.13;;;38.55;;
63217;SDS011;49314;48.278;16.378;2023-12-20T06:02:43;50.22;;;46.15;;
63217;SDS011;49314;48.278;16.378;2023-12-20T06:05:08;50.97;;;46.38;;
63217;SDS011;49314;48.278;16.378;2023-12-20T06:07:33;43.50;;;39.88;;
63217;SDS011;49314;48.278;16.378;2023-12-20T06:09:59;39.28;;;35.88;;
63217;SDS011;49314;48.278;16.378;2023-12-20T06:12:24;46.72;;;42.88;;
63217;SDS011;49314;48.278;16.378;2023-12-20T06:14:51;35.15;;;31.75;;
63217;SDS011;49314;48.278;16.378;2023-12-20T06:17:16;39.03;;;35.95;;
63217;SDS011;49314;48.278;16.378;2023-12-20T06:19:42;39.33;;;36.47;;
63217;SDS011;49314;48.278;16.378;2023-12-20T06:22:09;24.23;;;21.98;;
63217;SDS011;49314;48.278;16.378;2023-12-20T06:24:35;34.67;;;32.08;;
63217;SDS011;49314;48.278;16.378;2023-12-20T06:27:01;33.00;;;30.38;;
63217;SDS011;49314;48.278;16.378;2023-12-20T06:29:26;24.08;;;22.15;;
63217;SDS011;49314;48.278;16.378;2023-12-20T06:31:51;19.77;;;18.27;;
63217;SDS011;49314;48.278;16.378;2023-12-20T06:34:16;30.70;;;28.10;;
63217;SDS011;49314;48.278;16.378;2023-12-20T06:36:42;16.42;;;15.38;;
63217;SDS011;49314;48.278;16.378;2023-12-20T06:39:07;12.95;;;11.52;;
63217;SDS011;49314;48.278;16.378;2023-12-20T06:41:33;14.80;;;13.98;;
63217;SDS011;49314;48.278;16.378;2023-12-20T06:43:59;16.70;;;15.82;;
63217;SDS011;49314;48.278;16.378;2023-12-20T06:46:24;10.65;;;10.05;;
63217;SDS011;49314;48.278;16.378;2023-12-20T06:48:50;8.30;;;7.60;;
63217;SDS011;49314;48.278;16.378;2023-12-20T06:51:15;15.82;;;14.98;;
63217;SDS011;49314;48.278;16.378;2023-12-20T06:53:41;15.40;;;14.68;;
63217;SDS011;49314;48.278;16.378;2023-12-20T06:56:06;12.25;;;11.48;;
63217;SDS011;49314;48.278;16.378;2023-12-20T06:58:32;21.08;;;19.00;;
63217;SDS011;49314;48.278;16.378;2023-12-20T07:00:58;10.65;;;9.50;;
63217;SDS011;49314;48.278;16.378;2023-12-20T07:03:23;21.77;;;16.60;;
63217;SDS011;49314;48.278;16.378;2023-12-20T07:05:48;11.75;;;11.13;;
63217;SDS011;49314;48.278;16.378;2023-12-20T07:08:13;10.93;;;10.32;;
63217;SDS011;49314;48.278;16.378;2023-12-20T07:10:40;8.63;;;8.02;;
63217;SDS011;49314;48.278;16.378;2023-12-20T07:13:05;8.77;;;8.18;;
63217;SDS011;49314;48.278;16.378;2023-12-20T07:15:31;7.68;;;7.18;;
63217;SDS011;49314;48.278;16.378;2023-12-20T07:17:56;7.60;;;7.20;;
63217;SDS011;49314;48.278;16.378;2023-12-20T07:20:21;6.25;;;5.85;;
63217;SDS011;49314;48.278;16.378;2023-12-20T07:22:47;6.78;;;6.20;;
63217;SDS011;49314;48.278;16.378;2023-12-20T07:25:12;7.20;;;6.68;;
63217;SDS011;49314;48.278;16.378;2023-12-20T07:27:38;8.27;;;7.40;;
63217;SDS011;49314;48.278;16.378;2023-12-20T07:30:03;8.50;;;7.80;;
63217;SDS011;49314;48.278;16.378;2023-12-20T07:32:28;8.23;;;7.72;;
63217;SDS011;49314;48.278;16.378;2023-12-20T07:34:54;7.90;;;7.30;;
63217;SDS011;49314;48.278;16.378;2023-12-20T07:37:19;8.50;;;7.85;;
63217;SDS011;49314;48.278;16.378;2023-12-20T07:39:45;10.80;;;9.95;;
63217;SDS011;49314;48.278;16.378;2023-12-20T07:42:10;8.48;;;7.88;;
63217;SDS011;49314;48.278;16.378;2023-12-20T07:44:35;8.73;;;8.20;;
63217;SDS011;49314;48.278;16.378;2023-12-20T07:47:01;10.00;;;9.10;;
63217;SDS011;49314;48.278;16.378;2023-12-20T07:49:26;8.45;;;7.65;;
63217;SDS011;49314;48.278;16.378;2023-12-20T07:51:52;10.40;;;8.20;;
63217;SDS011;49314;48.278;16.378;2023-12-20T07:54:17;8.52;;;7.82;;
63217;SDS011;49314;48.278;16.378;2023-12-20T07:56:42;8.43;;;7.82;;
63217;SDS011;49314;48.278;16.378;2023-12-20T07:59:07;7.20;;;6.63;;
63217;SDS011;49314;48.278;16.378;2023-12-20T08:01:33;6.97;;;6.40;;
63217;SDS011;49314;48.278;16.378;2023-12-20T08:03:58;7.43;;;6.88;;
63217;SDS011;49314;48.278;16.378;2023-12-20T08:06:23;6.45;;;6.05;;
63217;SDS011;49314;48.278;16.378;2023-12-20T08:08:49;7.65;;;7.30;;
63217;SDS011;49314;48.278;16.378;2023-12-20T08:11:14;7.03;;;6.53;;
63217;SDS011;49314;48.278;16.378;2023-12-20T08:13:39;8.20;;;7.70;;
63217;SDS011;49314;48.278;16.378;2023-12-20T08:16:04;6.03;;;5.72;;
63217;SDS011;49314;48.278;16.378;2023-12-20T08:18:30;7.15;;;6.72;;
63217;SDS011;49314;48.278;16.378;2023-12-20T08:20:55;8.48;;;7.97;;
63217;SDS011;49314;48.278;16.378;2023-12-20T08:23:20;6.70;;;6.20;;
63217;SDS011;49314;48.278;16.378;2023-12-20T08:25:48;5.10;;;4.90;;
63217;SDS011;49314;48.278;16.378;2023-12-20T08:28:14;6.65;;;6.15;;
63217;SDS011;49314;48.278;16.378;2023-12-20T08:30:39;4.22;;;3.92;;
63217;SDS011;49314;48.278;16.378;2023-12-20T08:33:05;5.30;;;4.93;;
63217;SDS011;49314;48.278;16.378;2023-12-20T08:35:32;7.03;;;6.53;;
63217;SDS011;49314;48.278;16.378;2023-12-20T08:37:58;6.15;;;5.78;;
63217;SDS011;49314;48.278;16.378;2023-12-20T08:40:23;6.18;;;5.75;;
63217;SDS011;49314;48.278;16.378;2023-12-20T08:42:48;7.15;;;6.78;;
63217;SDS011;49314;48.278;16.378;2023-12-20T08:45:14;5.40;;;4.90;;
63217;SDS011;49314;48.278;16.378;2023-12-20T08:47:39;6.13;;;5.82;;
63217;SDS011;49314;48.278;16.378;2023-12-20T08:50:06;7.47;;;6.82;;
63217;SDS011;49314;48.278;16.378;2023-12-20T08:52:31;6.60;;;6.25;;
63217;SDS011;49314;48.278;16.378;2023-12-20T08:54:57;8.25;;;7.70;;
63217;SDS011;49314;48.278;16.378;2023-12-20T08:57:22;6.57;;;6.15;;
63217;SDS011;49314;48.278;16.378;2023-12-20T08:59:49;6.57;;;6.15;;
63217;SDS011;49314;48.278;16.378;2023-12-20T09:02:14;6.18;;;5.78;;
63217;SDS011;49314;48.278;16.378;2023-12-20T09:04:40;6.25;;;5.85;;
63217;SDS011;49314;48.278;16.378;2023-12-20T09:07:05;6.53;;;6.13;;
63217;SDS011;49314;48.278;16.378;2023-12-20T09:09:31;5.45;;;5.15;;
63217;SDS011;49314;48.278;16.378;2023-12-20T09:11:57;6.35;;;5.85;;
63217;SDS011;49314;48.278;16.378;2023-12-20T09:14:22;4.75;;;4.55;;
63217;SDS011;49314;48.278;16.378;2023-12-20T09:16:47;5.47;;;5.18;;
63217;SDS011;49314;48.278;16.378;2023-12-20T09:19:13;6.00;;;5.70;;
63217;SDS011;49314;48.278;16.378;2023-12-20T09:21:38;6.13;;;5.82;;
63217;SDS011;49314;48.278;16.378;2023-12-20T09:24:03;5.10;;;4.80;;
63217;SDS011;49314;48.278;16.378;2023-12-20T09:26:28;5.57;;;5.38;;
63217;SDS011;49314;48.278;16.378;2023-12-20T09:28:54;4.95;;;4.75;;
63217;SDS011;49314;48.278;16.378;2023-12-20T09:31:19;4.95;;;4.55;;
63217;SDS011;49314;48.278;16.378;2023-12-20T09:33:44;5.40;;;4.95;;
63217;SDS011;49314;48.278;16.378;2023-12-20T09:36:09;5.05;;;4.82;;
63217;SDS011;49314;48.278;16.378;2023-12-20T09:38:35;3.72;;;3.38;;
63217;SDS011;49314;48.278;16.378;2023-12-20T09:41:00;5.45;;;5.15;;
63217;SDS011;49314;48.278;16.378;2023-12-20T09:43:27;5.65;;;5.43;;
63217;SDS011;49314;48.278;16.378;2023-12-20T09:45:54;5.30;;;5.00;;
63217;SDS011;49314;48.278;16.378;2023-12-20T09:48:25;6.35;;;6.05;;
63217;SDS011;49314;48.278;16.378;2023-12-20T09:50:51;6.63;;;6.22;;
63217;SDS011;49314;48.278;16.378;2023-12-20T09:53:16;6.55;;;6.25;;
63217;SDS011;49314;48.278;16.378;2023-12-20T09:55:42;5.82;;;5.53;;
63217;SDS011;49314;48.278;16.378;2023-12-20T09:58:08;4.15;;;3.95;;
63217;SDS011;49314;48.278;16.378;2023-12-20T10:00:36;6.57;;;6.18;;
63217;SDS011;49314;48.278;16.378;2023-12-20T10:03:02;8.63;;;8.02;;
63217;SDS011;49314;48.278;16.378;2023-12-20T10:05:29;6.35;;;6.05;;
63217;SDS011;49314;48.278;16.378;2023-12-20T10:07:55;5.15;;;4.80;;
63217;SDS011;49314;48.278;16.378;2023-12-20T10:10:20;4.20;;;3.90;;
63217;SDS011;49314;48.278;16.378;2023-12-20T10:13:00;5.10;;;4.85;;
63217;SDS011;49314;48.278;16.378;2023-12-20T10:15:26;5.68;;;5.38;;
63217;SDS011;49314;48.278;16.378;2023-12-20T10:17:51;5.97;;;5.68;;
63217;SDS011;49314;48.278;16.378;2023-12-20T10:20:16;4.35;;;4.05;;
63217;SDS011;49314;48.278;16.378;2023-12-20T10:22:41;5.18;;;4.97;;
63217;SDS011;49314;48.278;16.378;2023-12-20T10:25:07;5.45;;;5.20;;
63217;SDS011;49314;48.278;16.378;2023-12-20T10:27:32;4.07;;;3.88;;
63217;SDS011;49314;48.278;16.378;2023-12-20T10:29:58;4.47;;;4.20;;
63217;SDS011;49314;48.278;16.378;2023-12-20T10:32:25;6.45;;;6.15;;
63217;SDS011;49314;48.278;16.378;2023-12-20T10:34:51;6.50;;;6.10;;
63217;SDS011;49314;48.278;16.378;2023-12-20T10:37:17;4.97;;;4.78;;
63217;SDS011;49314;48.278;16.378;2023-12-20T10:39:42;4.97;;;4.68;;
63217;SDS011;49314;48.278;16.378;2023-12-20T10:42:12;4.25;;;4.03;;
63217;SDS011;49314;48.278;16.378;2023-12-20T10:44:37;5.80;;;5.57;;
63217;SDS011;49314;48.278;16.378;2023-12-20T10:47:03;4.18;;;3.92;;
63217;SDS011;49314;48.278;16.378;2023-12-20T10:49:29;4.90;;;4.68;;
63217;SDS011;49314;48.278;16.378;2023-12-20T10:51:55;5.03;;;4.82;;
63217;SDS011;49314;48.278;16.378;2023-12-20T10:54:22;5.90;;;5.47;;
63217;SDS011;49314;48.278;16.378;2023-12-20T10:56:47;5.50;;;5.20;;
63217;SDS011;49314;48.278;16.378;2023-12-20T10:59:15;7.18;;;6.88;;
63217;SDS011;49314;48.278;16.378;2023-12-20T11:01:42;5.93;;;5.63;;
63217;SDS011;49314;48.278;16.378;2023-12-20T11:04:08;5.00;;;4.60;;
63217;SDS011;49314;48.278;16.378;2023-12-20T11:09:25;7.70;;;6.97;;
63217;SDS011;49314;48.278;16.378;2023-12-20T11:11:56;6.20;;;5.80;;
63217;SDS011;49314;48.278;16.378;2023-12-20T11:14:45;4.70;;;4.45;;
63217;SDS011;49314;48.278;16.378;2023-12-20T11:17:11;6.18;;;5.75;;
63217;SDS011;49314;48.278;16.378;2023-12-20T11:22:22;4.53;;;4.30;;
63217;SDS011;49314;48.278;16.378;2023-12-20T11:24:49;4.18;;;3.88;;
63217;SDS011;49314;48.278;16.378;2023-12-20T11:27:15;4.50;;;4.30;;
63217;SDS011;49314;48.278;16.378;2023-12-20T11:29:40;5.43;;;5.05;;
63217;SDS011;49314;48.278;16.378;2023-12-20T11:35:35;5.38;;;5.07;;
63217;SDS011;49314;48.278;16.378;2023-12-20T11:37:38;5.38;;;5.07;;
63217;SDS011;49314;48.278;16.378;2023-12-20T11:40:08;5.93;;;5.63;;
63217;SDS011;49314;48.278;16.378;2023-12-20T11:42:40;5.88;;;5.57;;
63217;SDS011;49314;48.278;16.378;2023-12-20T11:45:08;5.70;;;5.43;;
63217;SDS011;49314;48.278;16.378;2023-12-20T11:47:33;6.25;;;5.85;;
63217;SDS011;49314;48.278;16.378;2023-12-20T11:50:00;5.50;;;5.20;;
63217;SDS011;49314;48.278;16.378;2023-12-20T11:52:28;5.15;;;4.85;;
63217;SDS011;49314;48.278;16.378;2023-12-20T11:54:53;6.40;;;6.10;;
63217;SDS011;49314;48.278;16.378;2023-12-20T11:57:19;7.28;;;6.47;;
63217;SDS011;49314;48.278;16.378;2023-12-20T11:59:44;5.90;;;5.55;;
63217;SDS011;49314;48.278;16.378;2023-12-20T12:02:11;5.40;;;5.10;;
63217;SDS011;49314;48.278;16.378;2023-12-20T12:04:36;11.63;;;9.70;;
63217;SDS011;49314;48.278;16.378;2023-12-20T12:07:02;6.00;;;5.60;;
63217;SDS011;49314;48.278;16.378;2023-12-20T12:09:28;6.32;;;5.93;;
63217;SDS011;49314;48.278;16.378;2023-12-20T12:11:53;6.03;;;5.65;;
63217;SDS011;49314;48.278;16.378;2023-12-20T12:14:18;6.22;;;5.00;;
63217;SDS011;49314;48.278;16.378;2023-12-20T12:16:45;6.35;;;5.97;;
63217;SDS011;49314;48.278;16.378;2023-12-20T12:19:23;4.95;;;4.75;;
63217;SDS011;49314;48.278;16.378;2023-12-20T12:22:10;5.18;;;4.90;;
63217;SDS011;49314;48.278;16.378;2023-12-20T12:24:44;3.95;;;3.75;;
63217;SDS011;49314;48.278;16.378;2023-12-20T12:27:09;4.72;;;4.53;;
63217;SDS011;49314;48.278;16.378;2023-12-20T12:29:35;4.60;;;4.25;;
63217;SDS011;49314;48.278;16.378;2023-12-20T12:32:01;3.45;;;3.25;;
63217;SDS011;49314;48.278;16.378;2023-12-20T12:34:29;4.40;;;4.15;;
63217;SDS011;49314;48.278;16.378;2023-12-20T12:36:55;4.93;;;4.72;;
63217;SDS011;49314;48.278;16.378;2023-12-20T12:39:20;4.72;;;3.50;;
63217;SDS011;49314;48.278;16.378;2023-12-20T12:41:45;6.70;;;6.35;;
63217;SDS011;49314;48.278;16.378;2023-12-20T12:44:11;4.75;;;4.55;;
63217;SDS011;49314;48.278;16.378;2023-12-20T12:46:36;3.08;;;2.90;;
63217;SDS011;49314;48.278;16.378;2023-12-20T12:49:01;4.32;;;4.13;;
63217;SDS011;49314;48.278;16.378;2023-12-20T12:51:27;3.72;;;3.53;;
63217;SDS011;49314;48.278;16.378;2023-12-20T12:53:52;4.70;;;4.50;;
63217;SDS011;49314;48.278;16.378;2023-12-20T12:56:18;5.95;;;5.50;;
63217;SDS011;49314;48.278;16.378;2023-12-20T12:58:43;4.72;;;4.53;;
63217;SDS011;49314;48.278;16.378;2023-12-20T13:01:08;5.07;;;4.82;;
63217;SDS011;49314;48.278;16.378;2023-12-20T13:03:34;8.70;;;7.90;;
63217;SDS011;49314;48.278;16.378;2023-12-20T13:06:00;5.20;;;4.82;;
63217;SDS011;49314;48.278;16.378;2023-12-20T13:08:25;5.85;;;5.55;;
63217;SDS011;49314;48.278;16.378;2023-12-20T13:10:50;4.03;;;3.83;;
63217;SDS011;49314;48.278;16.378;2023-12-20T13:13:16;3.83;;;3.65;;
63217;SDS011;49314;48.278;16.378;2023-12-20T13:15:41;4.30;;;4.10;;
63217;SDS011;49314;48.278;16.378;2023-12-20T13:18:07;3.03;;;2.92;;
63217;SDS011;49314;48.278;16.378;2023-12-20T13:20:32;3.60;;;3.50;;
63217;SDS011;49314;48.278;16.378;2023-12-20T13:22:58;4.05;;;3.75;;
63217;SDS011;49314;48.278;16.378;2023-12-20T13:25:23;4.72;;;4.50;;
63217;SDS011;49314;48.278;16.378;2023-12-20T13:27:48;4.68;;;4.45;;
63217;SDS011;49314;48.278;16.378;2023-12-20T13:30:15;4.45;;;4.15;;
63217;SDS011;49314;48.278;16.378;2023-12-20T13:32:40;8.38;;;7.55;;
63217;SDS011;49314;48.278;16.378;2023-12-20T13:35:06;5.15;;;4.63;;
63217;SDS011;49314;48.278;16.378;2023-12-20T13:37:31;3.83;;;3.63;;
63217;SDS011;49314;48.278;16.378;2023-12-20T13:39:56;4.93;;;4.63;;
63217;SDS011;49314;48.278;16.378;2023-12-20T13:42:21;5.18;;;4.88;;
63217;SDS011;49314;48.278;16.378;2023-12-20T13:44:47;4.18;;;3.97;;
63217;SDS011;49314;48.278;16.378;2023-12-20T13:47:12;5.15;;;4.78;;
63217;SDS011;49314;48.278;16.378;2023-12-20T13:49:37;5.22;;;4.93;;
63217;SDS011;49314;48.278;16.378;2023-12-20T13:52:03;5.05;;;4.85;;
63217;SDS011;49314;48.278;16.378;2023-12-20T13:54:29;3.70;;;3.50;;
63217;SDS011;49314;48.278;16.378;2023-12-20T13:56:54;4.90;;;4.60;;
63217;SDS011;49314;48.278;16.378;2023-12-20T13:59:19;5.28;;;4.97;;
63217;SDS011;49314;48.278;16.378;2023-12-20T14:01:45;5.13;;;4.93;;
63217;SDS011;49314;48.278;16.378;2023-12-20T14:04:10;6.13;;;5.82;;
63217;SDS011;49314;48.278;16.378;2023-12-20T14:06:36;2.78;;;2.67;;
63217;SDS011;49314;48.278;16.378;2023-12-20T14:09:02;4.55;;;4.35;;
63217;SDS011;49314;48.278;16.378;2023-12-20T14:11:28;5.10;;;4.70;;
63217;SDS011;49314;48.278;16.378;2023-12-20T14:13:53;5.60;;;5.30;;
63217;SDS011;49314;48.278;16.378;2023-12-20T14:16:22;3.67;;;3.47;;
63217;SDS011;49314;48.278;16.378;2023-12-20T14:18:48;6.45;;;5.85;;
63217;SDS011;49314;48.278;16.378;2023-12-20T14:21:14;4.57;;;4.28;;